createdAt,value
2023-03-11T00:02:37.347Z,2.97
2023-03-11T00:07:38.610Z,3.40
2023-03-11T00:12:39.935Z,2.93
2023-03-11T00:17:41.238Z,2.63
2023-03-11T00:22:42.522Z,2.60
2023-03-11T00:27:43.820Z,2.73
2023-03-11T00:32:45.213Z,3.10
2023-03-11T00:37:46.534Z,4.17
2023-03-11T00:42:47.788Z,2.83
2023-03-11T00:47:49.048Z,2.10
2023-03-11T00:52:50.356Z,2.67
2023-03-11T00:57:51.653Z,2.47
2023-03-11T01:02:52.927Z,2.53
2023-03-11T01:07:54.202Z,2.77
2023-03-11T01:12:55.596Z,2.17
2023-03-11T01:17:56.860Z,2.30
2023-03-11T01:22:58.144Z,2.23
2023-03-11T01:27:59.434Z,1.87
2023-03-11T01:33:00.691Z,2.00
2023-03-11T01:38:01.953Z,1.83
2023-03-11T01:43:03.195Z,1.80
2023-03-11T01:48:04.522Z,2.03
2023-03-11T01:53:06.418Z,2.00
2023-03-11T01:58:07.782Z,1.30
2023-03-11T02:03:09.064Z,1.80
2023-03-11T02:08:10.362Z,1.93
2023-03-11T02:13:11.653Z,1.70
2023-03-11T02:18:12.917Z,1.20
2023-03-11T02:23:14.299Z,1.70
2023-03-11T02:28:15.737Z,1.50
2023-03-11T02:33:17.021Z,1.30
2023-03-11T02:38:18.266Z,1.30
2023-03-11T02:43:19.511Z,1.80
2023-03-11T02:48:20.745Z,1.40
2023-03-11T02:53:21.982Z,1.40
2023-03-11T02:58:23.260Z,1.00
2023-03-11T03:03:24.559Z,1.47
2023-03-11T03:08:25.828Z,1.53
2023-03-11T03:13:27.108Z,1.30
2023-03-11T03:18:28.428Z,3.93
2023-03-11T03:23:29.734Z,1.10
2023-03-11T03:28:31.072Z,1.30
2023-03-11T03:33:32.318Z,1.30
2023-03-11T03:38:33.725Z,1.03
2023-03-11T03:43:35.018Z,1.23
2023-03-11T03:48:36.256Z,0.93
2023-03-11T03:53:37.553Z,0.90
2023-03-11T03:58:38.887Z,1.03
2023-03-11T04:03:40.217Z,0.90
2023-03-11T04:08:41.504Z,0.83
2023-03-11T04:13:42.770Z,0.90
2023-03-11T04:18:44.035Z,0.70
2023-03-11T04:23:45.296Z,0.77
2023-03-11T04:28:46.586Z,1.13
2023-03-11T04:33:47.930Z,0.60
2023-03-11T04:38:49.192Z,1.00
2023-03-11T04:43:50.578Z,1.77
2023-03-11T04:48:51.874Z,0.60
2023-03-11T04:53:53.117Z,0.73
2023-03-11T04:58:54.335Z,0.50
2023-03-11T05:03:55.597Z,0.43
2023-03-11T05:08:56.920Z,0.90
2023-03-11T05:13:58.166Z,0.83
2023-03-11T05:18:59.424Z,0.63
2023-03-11T05:24:00.718Z,0.87
2023-03-11T05:29:01.943Z,6.10
2023-03-11T05:34:03.221Z,0.60
2023-03-11T05:39:04.616Z,1.83
2023-03-11T05:44:05.968Z,2.90
2023-03-11T05:49:07.350Z,2.40
2023-03-11T05:54:08.739Z,7.30
2023-03-11T05:59:10.000Z,1.70
2023-03-11T06:04:11.452Z,1.93
2023-03-11T06:09:12.933Z,2.13
2023-03-11T06:14:14.255Z,0.80
2023-03-11T06:19:15.678Z,1.10
2023-03-11T06:24:17.009Z,2.10
2023-03-11T06:29:18.389Z,2.70
2023-03-11T06:34:19.670Z,2.50
2023-03-11T06:39:20.954Z,4.10
2023-03-11T06:44:22.177Z,2.97
2023-03-11T06:49:23.441Z,3.10
2023-03-11T06:54:24.781Z,3.00
2023-03-11T06:59:26.069Z,2.07
2023-03-11T07:04:27.529Z,2.10
2023-03-11T07:09:28.854Z,3.80
2023-03-11T07:14:30.097Z,2.17
2023-03-11T07:19:31.414Z,1.97
2023-03-11T07:24:32.691Z,4.40
2023-03-11T07:29:34.028Z,2.35
2023-03-11T07:34:35.326Z,3.13
2023-03-11T07:39:36.566Z,2.23
2023-03-11T07:44:37.895Z,2.30
2023-03-11T07:49:39.321Z,4.27
2023-03-11T07:54:40.621Z,2.17
2023-03-11T07:59:41.925Z,4.13
2023-03-11T08:04:43.925Z,2.40
2023-03-11T08:09:45.498Z,2.60
2023-03-11T08:14:49.553Z,2.43
2023-03-11T08:19:51.887Z,2.70
2023-03-11T08:24:53.623Z,6.70
2023-03-11T08:29:55.359Z,11.82
2023-03-11T08:34:56.670Z,4.93
2023-03-11T08:39:57.972Z,5.70
2023-03-11T08:44:59.264Z,5.67
2023-03-11T08:50:00.680Z,4.17
2023-03-11T08:55:02.038Z,2.70
2023-03-11T09:00:03.304Z,2.75
2023-03-11T09:05:04.581Z,5.88
2023-03-11T09:10:05.875Z,2.50
2023-03-11T09:15:07.156Z,5.43
2023-03-11T09:20:08.554Z,5.07
2023-03-11T09:25:10.208Z,3.88
2023-03-11T09:30:11.491Z,3.20
2023-03-11T09:35:12.828Z,4.82
2023-03-11T09:40:14.306Z,2.20
2023-03-11T09:45:15.708Z,1.65
2023-03-11T09:50:17.067Z,5.88
2023-03-11T09:55:18.360Z,3.83
2023-03-11T10:00:19.648Z,4.28
2023-03-11T10:05:20.893Z,3.70
2023-03-11T10:10:22.262Z,68.77
2023-03-11T10:15:23.598Z,51.13
2023-03-11T10:20:24.965Z,7.60
2023-03-11T10:25:26.241Z,1.47
2023-03-11T10:30:27.571Z,1.17
2023-03-11T10:35:28.944Z,1.80
2023-03-11T10:40:30.256Z,2.17
2023-03-11T10:45:31.623Z,5.57
2023-03-11T10:50:34.343Z,4.90
2023-03-11T10:55:37.365Z,1.83
2023-03-11T11:00:38.676Z,3.30
2023-03-11T11:05:39.954Z,2.70
2023-03-11T11:10:41.262Z,2.10
2023-03-11T11:15:42.525Z,2.13
2023-03-11T11:20:43.894Z,8.47
2023-03-11T11:25:45.198Z,7.65
2023-03-11T11:30:46.530Z,4.43
2023-03-11T11:35:47.876Z,7.20
2023-03-11T11:40:49.159Z,3.07
2023-03-11T11:45:50.478Z,1.20
2023-03-11T11:50:51.904Z,17.27
2023-03-11T11:55:53.181Z,23.07
2023-03-11T12:00:54.471Z,20.43
2023-03-11T12:05:57.989Z,27.83
2023-03-11T12:10:59.460Z,24.73
2023-03-11T12:16:01.033Z,26.45
2023-03-11T12:21:02.402Z,23.17
2023-03-11T12:26:03.684Z,25.33
2023-03-11T12:31:05.080Z,20.93
2023-03-11T12:36:06.466Z,28.93
2023-03-11T12:41:07.834Z,18.15
2023-03-11T12:46:09.113Z,13.30
2023-03-11T12:51:10.390Z,23.48
2023-03-11T12:56:11.833Z,14.27
2023-03-11T13:01:13.104Z,14.13
2023-03-11T13:06:14.387Z,11.13
2023-03-11T13:11:15.703Z,12.77
2023-03-11T13:16:17.085Z,10.80
2023-03-11T13:21:18.426Z,16.73
2023-03-11T13:26:19.711Z,13.07
2023-03-11T13:31:21.187Z,17.03
2023-03-11T13:36:22.583Z,11.23
2023-03-11T13:41:23.922Z,11.50
2023-03-11T13:46:25.215Z,11.47
2023-03-11T13:51:26.573Z,11.00
2023-03-11T13:56:27.807Z,28.17
2023-03-11T14:01:29.278Z,15.03
2023-03-11T14:06:30.645Z,9.70
2023-03-11T14:11:32.023Z,9.07
2023-03-11T14:16:33.368Z,9.90
2023-03-11T14:21:34.639Z,10.10
2023-03-11T14:26:35.918Z,5.60
2023-03-11T14:31:37.348Z,10.73
2023-03-11T14:36:38.668Z,8.52
2023-03-11T14:41:39.983Z,4.15
2023-03-11T14:46:42.748Z,5.10
2023-03-11T14:51:46.207Z,4.03
2023-03-11T14:56:47.493Z,4.65
2023-03-11T15:01:49.057Z,3.40
2023-03-11T15:06:50.337Z,3.23
2023-03-11T15:11:51.640Z,5.35
2023-03-11T15:16:53.053Z,3.57
2023-03-11T15:21:54.612Z,2.67
2023-03-11T15:26:55.955Z,2.60
2023-03-11T15:31:57.312Z,4.23
2023-03-11T15:36:58.655Z,6.00
2023-03-11T15:41:59.925Z,3.30
2023-03-11T15:47:01.233Z,2.20
2023-03-11T15:52:02.509Z,2.37
2023-03-11T15:57:03.861Z,2.37
2023-03-11T16:02:05.160Z,2.37
2023-03-11T16:07:08.718Z,2.93
2023-03-11T16:12:10.189Z,2.27
2023-03-11T16:17:11.484Z,3.03
2023-03-11T16:22:12.722Z,2.10
2023-03-11T16:27:14.023Z,2.60
2023-03-11T16:32:15.389Z,2.00
2023-03-11T16:37:16.708Z,2.30
2023-03-11T16:42:17.958Z,4.00
2023-03-11T16:47:19.247Z,1.97
2023-03-11T16:52:20.651Z,2.10
2023-03-11T16:57:22.064Z,2.17
2023-03-11T17:02:24.600Z,1.83
2023-03-11T17:07:26.094Z,2.63
2023-03-11T17:12:27.510Z,2.23
2023-03-11T17:17:28.827Z,1.70
2023-03-11T17:22:30.141Z,1.90
2023-03-11T17:27:31.453Z,1.60
2023-03-11T17:32:32.871Z,2.17
2023-03-11T17:37:34.202Z,2.13
2023-03-11T17:42:35.570Z,3.10
2023-03-11T17:47:36.966Z,2.20
2023-03-11T17:52:38.249Z,1.90
2023-03-11T17:57:45.500Z,2.07
2023-03-11T18:02:47.381Z,2.20
2023-03-11T18:07:48.720Z,2.00
2023-03-11T18:12:50.074Z,3.80
2023-03-11T18:17:51.345Z,1.70
2023-03-11T18:22:52.711Z,1.60
2023-03-11T18:27:53.967Z,1.73
2023-03-11T18:32:55.410Z,2.63
2023-03-11T18:37:56.771Z,1.80
2023-03-11T18:42:58.252Z,1.60
2023-03-11T18:47:59.566Z,2.57
2023-03-11T18:53:00.934Z,5.30
2023-03-11T18:58:02.208Z,1.92
2023-03-11T19:03:03.598Z,2.70
2023-03-11T19:08:04.929Z,2.20
2023-03-11T19:13:06.341Z,1.70
2023-03-11T19:18:07.688Z,1.47
2023-03-11T19:23:09.001Z,4.43
2023-03-11T19:28:10.267Z,1.33
2023-03-11T19:33:11.690Z,3.07
2023-03-11T19:38:12.991Z,1.70
2023-03-11T19:43:14.427Z,6.47
2023-03-11T19:48:15.773Z,6.67
2023-03-11T19:53:17.166Z,1.63
2023-03-11T19:58:18.514Z,2.87
2023-03-11T20:03:19.801Z,2.20
2023-03-11T20:08:21.114Z,1.37
2023-03-11T20:13:22.531Z,3.00
2023-03-11T20:18:23.866Z,1.10
2023-03-11T20:23:25.442Z,17.15
2023-03-11T20:28:26.860Z,3.10
2023-03-11T20:33:28.343Z,2.40
2023-03-11T20:38:29.738Z,4.00
2023-03-11T20:43:31.185Z,2.07
2023-03-11T20:48:32.466Z,6.07
2023-03-11T20:53:33.842Z,7.55
2023-03-11T20:58:35.316Z,4.30
2023-03-11T21:03:36.692Z,3.10
2023-03-11T21:08:38.189Z,3.63
2023-03-11T21:13:39.614Z,8.60
2023-03-11T21:18:40.940Z,4.47
2023-03-11T21:23:42.393Z,4.30
2023-03-11T21:28:43.769Z,2.93
2023-03-11T21:33:45.189Z,4.65
2023-03-11T21:38:46.736Z,1.90
2023-03-11T21:43:48.131Z,1.57
2023-03-11T21:48:49.596Z,3.00
2023-03-11T21:53:51.131Z,2.90
2023-03-11T21:58:52.557Z,1.93
2023-03-11T22:03:54.076Z,1.90
2023-03-11T22:08:55.586Z,2.37
2023-03-11T22:13:56.984Z,1.60
2023-03-11T22:18:58.286Z,1.17
2023-03-11T22:23:59.690Z,1.07
2023-03-11T22:29:03.735Z,0.90
2023-03-11T22:34:05.551Z,1.00
2023-03-11T22:39:06.852Z,2.40
2023-03-11T22:44:08.242Z,1.95
2023-03-11T22:49:09.595Z,1.13
2023-03-11T22:54:11.059Z,0.90
2023-03-11T22:59:12.391Z,1.35
2023-03-11T23:04:13.741Z,1.17
2023-03-11T23:09:14.987Z,0.93
2023-03-11T23:14:16.326Z,1.20
2023-03-11T23:19:17.689Z,0.97
2023-03-11T23:24:19.058Z,0.73
2023-03-11T23:29:20.369Z,1.10
2023-03-11T23:34:21.685Z,0.60
2023-03-11T23:39:22.976Z,0.75
2023-03-11T23:44:24.292Z,0.80
2023-03-11T23:49:25.667Z,0.80
2023-03-11T23:54:26.977Z,0.75
2023-03-11T23:59:28.293Z,0.73
